createdAt,value
2019-04-20T00:00:09.082Z,66.79
2019-04-20T00:02:35.767Z,66.87
2019-04-20T00:05:03.785Z,67.02
2019-04-20T00:07:35.628Z,66.54
2019-04-20T00:10:08.765Z,66.87
2019-04-20T00:12:46.064Z,67.02
2019-04-20T00:15:00.608Z,66.33
2019-04-20T00:17:28.791Z,65.58
2019-04-20T00:19:57.830Z,66.02
2019-04-20T00:22:40.913Z,65.81
2019-04-20T00:25:15.497Z,65.95
2019-04-20T00:28:17.648Z,66.44
2019-04-20T00:30:48.161Z,66.79
2019-04-20T00:33:07.313Z,68.21
2019-04-20T00:35:27.158Z,67.88
2019-04-20T00:37:55.009Z,67.98
2019-04-20T00:40:23.675Z,68.20
2019-04-20T00:42:54.896Z,67.39
2019-04-20T00:45:25.862Z,67.20
2019-04-20T00:47:59.586Z,67.30
2019-04-20T00:50:35.827Z,67.63
2019-04-20T00:53:05.791Z,67.78
2019-04-20T00:55:19.078Z,68.03
2019-04-20T00:57:54.676Z,68.92
2019-04-20T01:00:31.588Z,68.72
2019-04-20T01:03:00.987Z,68.66
2019-04-20T01:05:39.396Z,68.51
2019-04-20T01:08:04.527Z,69.17
2019-04-20T01:10:37.090Z,69.10
2019-04-20T01:13:06.747Z,68.32
2019-04-20T01:15:38.652Z,69.20
2019-04-20T01:17:58.340Z,69.28
2019-04-20T01:20:27.821Z,69.33
2019-04-20T01:23:03.294Z,68.88
2019-04-20T01:25:30.850Z,69.35
2019-04-20T01:28:09.085Z,69.45
2019-04-20T01:30:30.162Z,70.40
2019-04-20T01:33:08.898Z,71.27
2019-04-20T01:35:39.522Z,70.95
2019-04-20T01:38:12.411Z,70.57
2019-04-20T01:40:21.230Z,70.56
2019-04-20T01:42:49.086Z,70.69
2019-04-20T01:45:23.561Z,70.75
2019-04-20T01:47:50.824Z,71.47
2019-04-20T01:50:21.255Z,71.47
2019-04-20T01:52:56.923Z,70.93
2019-04-20T01:55:35.827Z,70.61
2019-04-20T01:58:05.067Z,70.95
2019-04-20T02:00:34.929Z,71.15
2019-04-20T02:03:05.545Z,70.99
2019-04-20T02:05:35.877Z,71.55
2019-04-20T02:08:08.722Z,72.60
2019-04-20T02:10:41.083Z,72.19
2019-04-20T02:13:03.393Z,74.23
2019-04-20T02:15:38.563Z,72.95
2019-04-20T02:18:14.912Z,74.01
2019-04-20T02:20:50.283Z,73.58
2019-04-20T02:23:10.550Z,73.37
2019-04-20T02:25:29.071Z,73.59
2019-04-20T02:28:14.778Z,73.54
2019-04-20T02:33:34.789Z,74.26
2019-04-20T02:36:25.040Z,74.14
2019-04-20T02:41:49.734Z,74.05
2019-04-20T02:44:27.118Z,74.42
2019-04-20T02:46:33.680Z,74.83
2019-04-20T02:49:10.643Z,73.91
2019-04-20T02:51:33.052Z,73.35
2019-04-20T02:54:11.068Z,73.12
2019-04-20T02:56:39.874Z,73.11
2019-04-20T03:01:17.607Z,74.02
2019-04-20T03:03:34.524Z,73.98
2019-04-20T03:06:10.234Z,74.09
2019-04-20T03:08:47.955Z,74.34
2019-04-20T03:11:23.462Z,74.35
2019-04-20T03:13:41.737Z,74.47
2019-04-20T03:16:12.417Z,74.44
2019-04-20T03:18:41.347Z,74.39
2019-04-20T03:21:12.729Z,74.44
2019-04-20T03:23:57.279Z,74.52
2019-04-20T03:26:17.600Z,74.26
2019-04-20T03:28:51.464Z,74.06
2019-04-20T03:31:46.447Z,74.51
2019-04-20T03:34:23.182Z,74.48
2019-04-20T03:36:46.931Z,74.56
2019-04-20T03:38:53.857Z,74.73
2019-04-20T03:41:16.568Z,75.85
2019-04-20T03:43:32.865Z,75.16
2019-04-20T03:46:07.376Z,74.79
2019-04-20T03:48:46.853Z,74.68
2019-04-20T03:51:23.617Z,74.68
2019-04-20T03:54:04.689Z,74.20
2019-04-20T03:56:47.979Z,74.82
2019-04-20T03:59:33.245Z,74.58
2019-04-20T04:02:22.249Z,74.82
2019-04-20T04:04:54.499Z,73.98
2019-04-20T04:07:15.338Z,74.28
2019-04-20T04:09:46.704Z,74.46
2019-04-20T04:12:16.875Z,74.72
2019-04-20T04:14:34.529Z,74.37
2019-04-20T04:17:04.212Z,74.86
2019-04-20T04:19:36.578Z,75.17
2019-04-20T04:22:15.120Z,75.95
2019-04-20T04:24:40.977Z,75.80
2019-04-20T04:27:15.035Z,75.87
2019-04-20T04:29:48.603Z,75.76
2019-04-20T04:32:35.059Z,75.29
2019-04-20T04:34:43.318Z,74.93
2019-04-20T04:37:17.987Z,75.03
2019-04-20T04:39:49.068Z,74.92
2019-04-20T04:42:39.235Z,74.74
2019-04-20T04:44:37.487Z,74.25
2019-04-20T04:47:00.225Z,74.45
2019-04-20T04:49:31.138Z,74.05
2019-04-20T04:52:02.284Z,73.80
2019-04-20T04:54:33.825Z,73.77
2019-04-20T04:56:52.649Z,73.78
2019-04-20T04:59:21.399Z,73.43
2019-04-20T05:01:53.115Z,73.50
2019-04-20T05:04:41.512Z,73.13
2019-04-20T05:07:05.134Z,72.70
2019-04-20T05:09:20.453Z,71.57
2019-04-20T05:11:55.868Z,70.44
2019-04-20T05:14:24.516Z,70.43
2019-04-20T05:17:04.189Z,69.09
2019-04-20T05:19:36.812Z,68.86
2019-04-20T05:22:13.790Z,68.83
2019-04-20T05:24:48.214Z,68.17
2019-04-20T05:27:24.906Z,68.29
2019-04-20T05:29:38.153Z,67.32
2019-04-20T05:32:11.182Z,67.45
2019-04-20T05:34:58.206Z,68.28
2019-04-20T05:37:37.165Z,67.56
2019-04-20T05:39:59.011Z,67.09
2019-04-20T05:42:29.999Z,66.24
2019-04-20T05:44:55.953Z,65.25
2019-04-20T05:47:24.074Z,64.87
2019-04-20T05:49:49.901Z,64.14
2019-04-20T05:52:35.034Z,63.62
2019-04-20T05:54:51.411Z,63.05
2019-04-20T05:57:25.143Z,61.52
2019-04-20T06:00:00.011Z,60.58
2019-04-20T06:02:25.061Z,60.96
2019-04-20T06:05:00.470Z,60.54
2019-04-20T06:07:21.180Z,59.98
2019-04-20T06:09:46.344Z,59.31
2019-04-20T06:15:00.351Z,58.06
2019-04-20T06:17:53.203Z,57.74
2019-04-20T06:20:27.218Z,57.32
2019-04-20T06:22:57.419Z,56.80
2019-04-20T06:27:56.880Z,56.25
2019-04-20T06:30:18.901Z,55.05
2019-04-20T06:33:06.851Z,54.25
2019-04-20T06:35:46.581Z,53.30
2019-04-20T06:38:00.767Z,51.00
2019-04-20T06:40:42.275Z,50.11
2019-04-20T06:42:58.852Z,49.39
2019-04-20T06:45:28.189Z,48.57
2019-04-20T06:47:54.597Z,49.26
2019-04-20T06:50:18.203Z,47.00
2019-04-20T06:52:55.650Z,47.50
2019-04-20T06:55:19.794Z,48.40
2019-04-20T06:57:57.274Z,47.52
2019-04-20T07:00:18.152Z,46.70
2019-04-20T07:02:53.897Z,47.36
2019-04-20T07:07:53.376Z,46.02
2019-04-20T07:10:37.388Z,45.12
2019-04-20T07:12:46.638Z,45.04
2019-04-20T07:15:19.851Z,44.66
2019-04-20T07:18:02.357Z,45.32
2019-04-20T07:20:27.851Z,44.74
2019-04-20T07:23:11.562Z,45.57
2019-04-20T07:25:34.144Z,44.84
2019-04-20T07:27:58.254Z,44.57
2019-04-20T07:30:30.326Z,44.52
2019-04-20T07:33:04.545Z,44.81
2019-04-20T07:35:26.306Z,43.71
2019-04-20T07:40:24.481Z,43.78
2019-04-20T07:42:56.479Z,43.11
2019-04-20T07:47:52.733Z,45.05
2019-04-20T07:50:18.883Z,44.62
2019-04-20T07:52:43.863Z,44.05
2019-04-20T07:57:46.914Z,42.17
2019-04-20T08:00:26.249Z,41.87
2019-04-20T08:02:57.362Z,40.51
2019-04-20T08:05:30.493Z,40.75
2019-04-20T08:07:53.850Z,41.21
2019-04-20T08:10:30.680Z,40.61
2019-04-20T08:13:09.515Z,40.25
2019-04-20T08:15:46.186Z,40.25
2019-04-20T08:18:01.259Z,39.40
2019-04-20T08:20:35.515Z,39.40
2019-04-20T08:23:06.408Z,39.89
2019-04-20T08:25:23.524Z,40.79
2019-04-20T08:27:46.599Z,41.42
2019-04-20T08:30:33.878Z,38.57
2019-04-20T08:33:09.541Z,38.95
2019-04-20T08:35:47.710Z,38.68
2019-04-20T08:38:37.278Z,38.98
2019-04-20T08:40:43.717Z,37.79
2019-04-20T08:43:20.116Z,38.75
2019-04-20T08:45:42.041Z,38.70
2019-04-20T08:48:17.412Z,40.40
2019-04-20T08:50:37.414Z,38.65
2019-04-20T08:53:20.491Z,36.69
2019-04-20T08:55:33.537Z,38.34
2019-04-20T08:57:49.269Z,36.20
2019-04-20T09:00:28.861Z,35.89
2019-04-20T09:02:51.681Z,35.28
2019-04-20T09:05:30.269Z,35.83
2019-04-20T09:07:57.761Z,35.25
2019-04-20T09:10:39.439Z,35.03
2019-04-20T09:13:01.526Z,34.65
2019-04-20T09:15:14.774Z,34.68
2019-04-20T09:17:54.805Z,34.29
2019-04-20T09:20:33.065Z,33.59
2019-04-20T09:23:07.055Z,37.03
2019-04-20T09:28:09.483Z,33.59
2019-04-20T09:30:37.062Z,33.44
2019-04-20T09:33:16.820Z,33.36
2019-04-20T09:35:44.044Z,33.67
2019-04-20T09:38:14.417Z,33.51
2019-04-20T09:40:48.267Z,32.49
2019-04-20T09:43:06.659Z,33.07
2019-04-20T09:45:49.003Z,31.09
2019-04-20T09:48:21.223Z,30.83
2019-04-20T09:51:05.013Z,30.76
2019-04-20T09:53:24.730Z,30.29
2019-04-20T09:56:04.713Z,27.53
2019-04-20T09:58:24.030Z,28.34
2019-04-20T10:00:56.805Z,29.31
2019-04-20T10:03:10.908Z,27.42
2019-04-20T10:05:38.566Z,27.34
2019-04-20T10:08:09.549Z,26.68
2019-04-20T10:10:40.577Z,26.59
2019-04-20T10:13:05.995Z,29.59
2019-04-20T10:15:35.390Z,27.58
2019-04-20T10:18:03.748Z,28.68
2019-04-20T10:20:34.753Z,26.76
2019-04-20T10:23:00.912Z,26.40
2019-04-20T10:25:28.772Z,28.61
2019-04-20T10:27:57.589Z,26.99
2019-04-20T10:30:26.307Z,26.94
2019-04-20T10:32:55.722Z,27.36
2019-04-20T10:35:23.544Z,26.56
2019-04-20T10:37:55.730Z,27.34
2019-04-20T10:40:37.799Z,26.52
2019-04-20T10:42:53.154Z,26.18
2019-04-20T10:45:21.280Z,24.23
2019-04-20T10:47:49.082Z,24.72
2019-04-20T10:50:16.899Z,25.63
2019-04-20T10:52:45.810Z,25.96
2019-04-20T10:55:14.729Z,27.21
2019-04-20T10:57:43.812Z,26.88
2019-04-20T11:00:13.422Z,25.10
2019-04-20T11:02:43.959Z,25.01
2019-04-20T11:05:10.837Z,24.60
2019-04-20T11:07:38.832Z,24.39
2019-04-20T11:10:14.729Z,26.09
2019-04-20T11:12:35.941Z,25.13
2019-04-20T11:15:03.637Z,25.51
2019-04-20T11:17:31.813Z,25.91
2019-04-20T11:20:01.197Z,24.58
2019-04-20T11:22:30.291Z,23.89
2019-04-20T11:24:58.569Z,25.08
2019-04-20T11:27:26.416Z,23.92
2019-04-20T11:29:54.138Z,23.81
2019-04-20T11:32:22.204Z,24.05
2019-04-20T11:34:51.175Z,25.24
2019-04-20T11:37:19.357Z,24.47
2019-04-20T11:39:47.350Z,25.32
2019-04-20T11:42:15.204Z,24.19
2019-04-20T11:44:42.865Z,24.63
2019-04-20T11:47:10.717Z,24.74
2019-04-20T11:49:39.657Z,25.48
2019-04-20T11:52:07.775Z,23.33
2019-04-20T11:54:36.610Z,24.32
2019-04-20T11:57:04.600Z,24.47
2019-04-20T11:59:32.775Z,25.51
2019-04-20T12:02:10.827Z,24.16
2019-04-20T12:04:49.967Z,24.61
2019-04-20T12:07:12.922Z,25.35
2019-04-20T12:09:41.874Z,24.59
2019-04-20T12:12:23.484Z,24.77
2019-04-20T12:14:39.041Z,25.40
2019-04-20T12:17:07.939Z,25.47
2019-04-20T12:19:36.282Z,24.57
2019-04-20T12:22:05.655Z,24.25
2019-04-20T12:24:33.434Z,24.08
2019-04-20T12:27:01.126Z,23.50
2019-04-20T12:29:29.937Z,24.13
2019-04-20T12:32:01.282Z,24.14
2019-04-20T12:34:28.573Z,23.59
2019-04-20T12:36:58.282Z,23.61
2019-04-20T12:39:26.981Z,23.83
2019-04-20T12:41:58.836Z,23.82
2019-04-20T12:44:24.147Z,24.04
2019-04-20T12:46:52.088Z,24.99
2019-04-20T12:49:19.951Z,24.37
2019-04-20T12:51:53.742Z,24.07
2019-04-20T12:54:18.499Z,23.17
2019-04-20T12:56:46.607Z,24.23
2019-04-20T12:59:15.714Z,24.04
2019-04-20T13:01:43.793Z,23.02
2019-04-20T13:04:12.139Z,24.80
2019-04-20T13:06:40.878Z,22.61
2019-04-20T13:09:10.656Z,23.83
2019-04-20T13:11:50.384Z,22.26
2019-04-20T13:14:26.247Z,22.28
2019-04-20T13:16:55.144Z,22.94
2019-04-20T13:19:23.536Z,22.50
2019-04-20T13:21:52.668Z,22.75
2019-04-20T13:24:20.929Z,22.76
2019-04-20T13:26:49.100Z,22.01
2019-04-20T13:29:17.123Z,22.35
2019-04-20T13:31:44.931Z,22.26
2019-04-20T13:34:13.282Z,21.80
2019-04-20T13:36:42.098Z,22.05
2019-04-20T13:39:10.232Z,21.41
2019-04-20T13:41:38.186Z,21.43
2019-04-20T13:44:06.573Z,21.43
2019-04-20T13:46:34.362Z,21.83
2019-04-20T13:49:03.017Z,22.19
2019-04-20T13:51:31.003Z,22.62
2019-04-20T13:53:59.440Z,21.77
2019-04-20T13:56:28.004Z,21.98
2019-04-20T13:59:02.146Z,21.53
2019-04-20T14:01:51.609Z,21.42
2019-04-20T14:04:24.464Z,21.52
2019-04-20T14:06:53.357Z,21.87
2019-04-20T14:09:21.406Z,22.38
2019-04-20T14:11:49.451Z,22.24
2019-04-20T14:14:17.348Z,21.53
2019-04-20T14:16:45.419Z,20.91
2019-04-20T14:19:14.379Z,20.85
2019-04-20T14:21:42.189Z,21.81
2019-04-20T14:24:10.971Z,21.90
2019-04-20T14:26:40.748Z,21.05
2019-04-20T14:29:09.038Z,22.10
2019-04-20T14:31:37.598Z,21.52
2019-04-20T14:34:06.768Z,21.62
2019-04-20T14:36:34.914Z,21.18
2019-04-20T14:39:04.422Z,21.41
2019-04-20T14:41:32.411Z,22.60
2019-04-20T14:44:01.562Z,22.06
2019-04-20T14:46:29.546Z,21.70
2019-04-20T14:48:58.759Z,21.70
2019-04-20T14:51:27.761Z,21.37
2019-04-20T14:53:55.810Z,21.42
2019-04-20T14:56:23.582Z,19.73
2019-04-20T14:58:55.765Z,19.63
2019-04-20T15:01:42.833Z,19.97
2019-04-20T15:04:16.664Z,20.33
2019-04-20T15:06:40.103Z,20.40
2019-04-20T15:09:08.725Z,19.96
2019-04-20T15:11:39.869Z,19.21
2019-04-20T15:14:06.860Z,20.01
2019-04-20T15:16:34.837Z,19.78
2019-04-20T15:19:07.715Z,20.00
2019-04-20T15:21:35.702Z,20.17
2019-04-20T15:24:03.767Z,19.87
2019-04-20T15:26:31.506Z,19.47
2019-04-20T15:28:59.973Z,19.32
2019-04-20T15:31:28.190Z,20.33
2019-04-20T15:33:57.064Z,20.46
2019-04-20T15:36:24.802Z,21.82
2019-04-20T15:38:53.340Z,21.05
2019-04-20T15:41:21.317Z,21.66
2019-04-20T15:43:49.174Z,20.59
2019-04-20T15:46:17.215Z,21.49
2019-04-20T15:48:46.156Z,21.32
2019-04-20T15:51:14.167Z,22.00
2019-04-20T15:53:42.016Z,21.16
2019-04-20T15:56:11.672Z,21.16
2019-04-20T15:58:39.041Z,21.06
2019-04-20T16:01:08.294Z,20.87
2019-04-20T16:03:41.562Z,21.75
2019-04-20T16:06:11.354Z,21.35
2019-04-20T16:08:41.940Z,21.28
2019-04-20T16:11:11.220Z,22.13
2019-04-20T16:13:44.138Z,21.92
2019-04-20T16:16:09.966Z,22.03
2019-04-20T16:18:39.151Z,22.01
2019-04-20T16:21:13.303Z,22.14
2019-04-20T16:23:43.927Z,22.38
2019-04-20T16:26:17.709Z,22.90
2019-04-20T16:28:45.869Z,24.01
2019-04-20T16:31:15.415Z,23.80
2019-04-20T16:33:44.293Z,23.20
2019-04-20T16:36:12.374Z,22.84
2019-04-20T16:38:41.465Z,22.87
2019-04-20T16:41:10.434Z,22.88
2019-04-20T16:43:43.013Z,23.71
2019-04-20T16:46:08.749Z,23.25
2019-04-20T16:48:37.930Z,23.08
2019-04-20T16:51:06.925Z,23.02
2019-04-20T16:53:34.971Z,23.61
2019-04-20T16:56:02.876Z,23.06
2019-04-20T16:58:31.837Z,23.89
2019-04-20T17:00:59.501Z,24.23
2019-04-20T17:03:39.007Z,23.79
2019-04-20T17:05:56.529Z,24.07
2019-04-20T17:08:24.979Z,23.92
2019-04-20T17:10:53.674Z,23.59
2019-04-20T17:13:34.158Z,23.11
2019-04-20T17:15:51.969Z,23.81
2019-04-20T17:18:19.736Z,24.58
2019-04-20T17:20:48.373Z,24.17
2019-04-20T17:23:17.539Z,23.71
2019-04-20T17:25:46.021Z,24.65
2019-04-20T17:28:27.258Z,23.92
2019-04-20T17:31:03.703Z,24.37
2019-04-20T17:33:50.763Z,24.26
2019-04-20T17:36:15.658Z,24.07
2019-04-20T17:38:43.427Z,24.25
2019-04-20T17:41:22.477Z,24.52
2019-04-20T17:43:57.794Z,24.49
2019-04-20T17:46:17.359Z,24.26
2019-04-20T17:48:45.124Z,24.87
2019-04-20T17:51:24.001Z,24.87
2019-04-20T17:53:58.557Z,24.60
2019-04-20T17:56:24.459Z,26.03
2019-04-20T17:58:52.399Z,25.84
2019-04-20T18:01:47.826Z,26.61
2019-04-20T18:04:37.014Z,27.28
2019-04-20T18:06:47.841Z,28.20
2019-04-20T18:09:24.935Z,27.36
2019-04-20T18:11:40.307Z,26.13
2019-04-20T18:14:17.155Z,25.91
2019-04-20T18:16:51.069Z,27.34
2019-04-20T18:19:13.906Z,26.95
2019-04-20T18:21:43.415Z,28.74
2019-04-20T18:24:16.541Z,30.12
2019-04-20T18:26:59.163Z,29.73
2019-04-20T18:29:32.289Z,29.00
2019-04-20T18:31:45.334Z,27.42
2019-04-20T18:34:22.708Z,27.77
2019-04-20T18:36:49.450Z,30.66
2019-04-20T18:39:22.150Z,31.16
2019-04-20T18:41:52.161Z,33.02
2019-04-20T18:44:20.200Z,30.60
2019-04-20T18:47:09.525Z,33.30
2019-04-20T18:49:26.924Z,33.58
2019-04-20T18:51:44.288Z,34.32
2019-04-20T18:54:19.461Z,35.00
2019-04-20T18:56:45.940Z,35.20
2019-04-20T18:59:11.438Z,35.06
2019-04-20T19:01:42.006Z,37.10
2019-04-20T19:04:09.868Z,37.12
2019-04-20T19:06:38.104Z,37.17
2019-04-20T19:09:10.088Z,36.54
2019-04-20T19:11:43.746Z,35.27
2019-04-20T19:14:17.263Z,32.88
2019-04-20T19:16:59.765Z,32.49
2019-04-20T19:19:33.370Z,33.21
2019-04-20T19:21:54.152Z,32.51
2019-04-20T19:24:26.000Z,32.98
2019-04-20T19:26:56.121Z,32.78
2019-04-20T19:29:30.068Z,33.18
2019-04-20T19:32:15.820Z,33.44
2019-04-20T19:34:37.747Z,34.13
2019-04-20T19:37:02.223Z,33.44
2019-04-20T19:39:32.270Z,34.15
2019-04-20T19:41:55.514Z,35.39
2019-04-20T19:44:28.742Z,35.23
2019-04-20T19:47:09.119Z,36.91
2019-04-20T19:49:25.077Z,35.34
2019-04-20T19:52:20.215Z,34.92
2019-04-20T19:54:36.855Z,35.28
2019-04-20T19:56:58.707Z,34.31
2019-04-20T19:59:24.860Z,36.24
2019-04-20T20:01:42.837Z,36.69
2019-04-20T20:04:11.852Z,36.21
2019-04-20T20:06:47.172Z,37.62
2019-04-20T20:09:12.615Z,38.07
2019-04-20T20:11:42.314Z,39.32
2019-04-20T20:14:11.128Z,39.64
2019-04-20T20:16:56.502Z,41.67
2019-04-20T20:19:16.778Z,42.99
2019-04-20T20:21:54.296Z,44.04
2019-04-20T20:24:06.085Z,44.42
2019-04-20T20:26:40.712Z,45.25
2019-04-20T20:29:12.131Z,45.06
2019-04-20T20:31:48.459Z,45.93
2019-04-20T20:34:15.788Z,45.76
2019-04-20T20:36:43.652Z,45.90
2019-04-20T20:39:10.756Z,44.98
2019-04-20T20:41:47.799Z,45.98
2019-04-20T20:44:06.955Z,45.80
2019-04-20T20:46:36.521Z,46.34
2019-04-20T20:49:28.861Z,45.32
2019-04-20T20:51:52.803Z,46.50
2019-04-20T20:54:07.671Z,47.11
2019-04-20T20:56:30.878Z,46.82
2019-04-20T20:59:04.139Z,47.54
2019-04-20T21:01:37.795Z,48.33
2019-04-20T21:03:56.735Z,48.30
2019-04-20T21:06:24.554Z,49.16
2019-04-20T21:08:56.069Z,48.28
2019-04-20T21:11:27.138Z,47.55
2019-04-20T21:13:52.263Z,46.88
2019-04-20T21:16:25.700Z,45.62
2019-04-20T21:19:05.956Z,45.08
2019-04-20T21:21:34.919Z,45.75
2019-04-20T21:23:58.157Z,47.07
2019-04-20T21:26:27.085Z,45.71
2019-04-20T21:28:50.086Z,45.18
2019-04-20T21:31:22.377Z,43.33
2019-04-20T21:33:47.232Z,43.02
2019-04-20T21:36:21.187Z,41.22
2019-04-20T21:38:45.120Z,40.15
2019-04-20T21:41:16.217Z,39.51
2019-04-20T21:43:44.635Z,39.19
2019-04-20T21:46:13.866Z,39.67
2019-04-20T21:48:55.926Z,39.72
2019-04-20T21:51:27.444Z,40.29
2019-04-20T21:53:41.181Z,40.77
2019-04-20T21:56:10.211Z,41.24
2019-04-20T21:58:43.548Z,40.81
2019-04-20T22:01:20.116Z,40.36
2019-04-20T22:03:38.306Z,39.57
2019-04-20T22:06:06.769Z,41.36
2019-04-20T22:08:34.765Z,40.58
2019-04-20T22:11:03.860Z,40.21
2019-04-20T22:13:37.697Z,43.41
2019-04-20T22:16:05.433Z,44.90
2019-04-20T22:18:31.916Z,45.61
2019-04-20T22:21:11.182Z,46.10
2019-04-20T22:23:46.438Z,45.36
2019-04-20T22:26:16.331Z,46.00
2019-04-20T22:28:28.160Z,46.39
2019-04-20T22:30:55.863Z,48.87
2019-04-20T22:33:33.602Z,49.24
2019-04-20T22:36:02.181Z,49.02
2019-04-20T22:38:33.055Z,48.79
2019-04-20T22:41:07.772Z,49.93
2019-04-20T22:43:33.915Z,50.20
2019-04-20T22:45:59.648Z,50.62
2019-04-20T22:48:27.287Z,51.51
2019-04-20T22:51:17.909Z,51.96
2019-04-20T22:53:36.445Z,51.47
2019-04-20T22:56:14.771Z,52.67
2019-04-20T22:58:38.793Z,52.59
2019-04-20T23:00:57.859Z,52.38
2019-04-20T23:03:22.951Z,52.62
2019-04-20T23:05:50.995Z,53.71
2019-04-20T23:08:20.369Z,54.00
2019-04-20T23:10:49.701Z,54.37
2019-04-20T23:13:22.080Z,55.57
2019-04-20T23:15:54.070Z,55.70
2019-04-20T23:18:16.277Z,56.32
2019-04-20T23:20:44.269Z,55.67
2019-04-20T23:23:16.963Z,56.66
2019-04-20T23:25:41.362Z,56.54
2019-04-20T23:28:12.338Z,55.98
2019-04-20T23:30:40.619Z,56.59
2019-04-20T23:33:07.894Z,56.67
2019-04-20T23:35:37.535Z,57.45
2019-04-20T23:38:11.083Z,58.20
2019-04-20T23:40:34.262Z,57.64
2019-04-20T23:43:17.801Z,57.71
2019-04-20T23:45:49.858Z,58.14
2019-04-20T23:48:28.478Z,58.28
2019-04-20T23:51:08.439Z,59.15
2019-04-20T23:53:39.285Z,58.88
2019-04-20T23:55:52.075Z,58.66
2019-04-20T23:58:21.052Z,58.63
